createdAt,value
2018-12-24T00:00:34.979Z,86.33
2018-12-24T00:03:03.776Z,85.89
2018-12-24T00:05:32.798Z,85.69
2018-12-24T00:08:01.477Z,85.99
2018-12-24T00:10:30.219Z,85.58
2018-12-24T00:12:59.726Z,85.98
2018-12-24T00:15:28.444Z,85.60
2018-12-24T00:17:57.149Z,85.74
2018-12-24T00:20:26.164Z,85.74
2018-12-24T00:22:58.297Z,86.03
2018-12-24T00:25:27.067Z,86.03
2018-12-24T00:27:56.139Z,85.87
2018-12-24T00:30:23.848Z,85.68
2018-12-24T00:32:51.567Z,85.68
2018-12-24T00:35:19.653Z,86.10
2018-12-24T00:37:50.788Z,86.10
2018-12-24T00:40:18.632Z,85.95
2018-12-24T00:42:48.926Z,85.95
2018-12-24T00:45:16.709Z,86.27
2018-12-24T00:47:44.847Z,86.27
2018-12-24T00:50:12.880Z,86.04
2018-12-24T00:52:40.672Z,86.45
2018-12-24T00:55:08.408Z,86.45
2018-12-24T00:57:36.429Z,85.84
2018-12-24T01:00:04.271Z,86.07
2018-12-24T01:02:32.053Z,86.28
2018-12-24T01:05:00.158Z,86.28
2018-12-24T01:07:28.033Z,86.23
2018-12-24T01:09:55.797Z,86.23
2018-12-24T01:12:24.701Z,86.03
2018-12-24T01:14:52.809Z,86.12
2018-12-24T01:17:20.604Z,85.46
2018-12-24T01:19:48.567Z,86.21
2018-12-24T01:22:16.291Z,86.21
2018-12-24T01:24:44.073Z,86.00
2018-12-24T01:27:11.834Z,85.77
2018-12-24T01:29:39.629Z,86.10
2018-12-24T01:32:07.688Z,85.72
2018-12-24T01:34:35.428Z,85.72
2018-12-24T01:37:03.237Z,86.07
2018-12-24T01:39:31.258Z,86.19
2018-12-24T01:41:59.115Z,86.19
2018-12-24T01:44:26.839Z,85.89
2018-12-24T01:46:54.837Z,86.21
2018-12-24T01:49:22.652Z,86.21
2018-12-24T01:51:51.858Z,85.86
2018-12-24T01:54:19.940Z,86.01
2018-12-24T01:56:47.772Z,85.78
2018-12-24T01:59:16.838Z,85.78
2018-12-24T02:01:44.819Z,85.89
2018-12-24T02:04:12.822Z,85.44
2018-12-24T02:06:40.585Z,85.66
2018-12-24T02:09:08.373Z,85.66
2018-12-24T02:11:36.197Z,85.93
2018-12-24T02:14:04.238Z,85.93
2018-12-24T02:16:31.985Z,85.87
2018-12-24T02:19:00.231Z,86.08
2018-12-24T02:21:28.426Z,85.85
2018-12-24T02:23:56.337Z,85.85
2018-12-24T02:26:24.724Z,85.80
2018-12-24T02:28:52.454Z,85.80
2018-12-24T02:31:20.211Z,85.70
2018-12-24T02:33:48.334Z,85.70
2018-12-24T02:36:16.091Z,86.12
2018-12-24T02:38:43.986Z,86.12
2018-12-24T02:41:12.166Z,86.08
2018-12-24T02:43:40.244Z,86.08
2018-12-24T02:46:07.946Z,85.41
2018-12-24T02:48:35.765Z,85.41
2018-12-24T02:51:03.495Z,85.60
2018-12-24T02:53:31.984Z,85.60
2018-12-24T02:55:59.747Z,85.63
2018-12-24T02:58:27.504Z,85.59
2018-12-24T03:00:55.699Z,85.68
2018-12-24T03:03:23.818Z,85.49
2018-12-24T03:05:51.937Z,85.49
2018-12-24T03:08:19.777Z,85.63
2018-12-24T03:10:47.565Z,85.83
2018-12-24T03:13:15.611Z,85.83
2018-12-24T03:15:43.435Z,85.64
2018-12-24T03:18:11.224Z,85.67
2018-12-24T03:20:39.248Z,85.68
2018-12-24T03:23:07.086Z,85.68
2018-12-24T03:25:34.858Z,85.64
2018-12-24T03:28:04.049Z,85.63
2018-12-24T03:30:31.933Z,85.62
2018-12-24T03:32:59.759Z,85.63
2018-12-24T03:35:27.685Z,85.65
2018-12-24T03:37:55.727Z,85.41
2018-12-24T03:40:23.498Z,85.41
2018-12-24T03:42:51.321Z,85.57
2018-12-24T03:45:19.429Z,85.57
2018-12-24T03:47:47.515Z,85.64
2018-12-24T03:50:15.250Z,85.14
2018-12-24T03:52:45.441Z,85.33
2018-12-24T03:55:13.214Z,85.29
2018-12-24T03:57:40.962Z,85.29
2018-12-24T04:00:08.972Z,85.34
2018-12-24T04:02:36.913Z,85.90
2018-12-24T04:05:04.721Z,85.90
2018-12-24T04:07:32.911Z,85.84
2018-12-24T04:10:02.921Z,85.96
2018-12-24T04:12:30.975Z,85.29
2018-12-24T04:14:58.760Z,85.29
2018-12-24T04:17:26.648Z,85.64
2018-12-24T04:19:54.466Z,85.64
2018-12-24T04:22:22.579Z,85.76
2018-12-24T04:24:50.364Z,85.76
2018-12-24T04:27:18.169Z,85.75
2018-12-24T04:29:46.281Z,85.75
2018-12-24T04:32:14.021Z,85.65
2018-12-24T04:34:41.831Z,85.64
2018-12-24T04:37:09.596Z,85.62
2018-12-24T04:39:37.726Z,85.64
2018-12-24T04:42:05.497Z,85.65
2018-12-24T04:44:33.315Z,85.38
2018-12-24T04:47:01.055Z,85.38
2018-12-24T04:49:29.247Z,85.70
2018-12-24T04:51:57.055Z,85.68
2018-12-24T04:54:24.852Z,85.67
2018-12-24T04:56:52.670Z,85.65
2018-12-24T04:59:20.415Z,85.66
2018-12-24T05:01:48.186Z,86.02
2018-12-24T05:04:16.014Z,85.37
2018-12-24T05:06:44.140Z,85.84
2018-12-24T05:09:11.873Z,85.84
2018-12-24T05:11:39.679Z,85.86
2018-12-24T05:14:07.811Z,85.86
2018-12-24T05:16:35.867Z,85.67
2018-12-24T05:19:03.659Z,85.67
2018-12-24T05:21:31.409Z,85.98
2018-12-24T05:23:59.230Z,85.89
2018-12-24T05:26:27.052Z,85.89
2018-12-24T05:28:55.100Z,85.62
2018-12-24T05:31:22.947Z,85.60
2018-12-24T05:33:50.689Z,85.31
2018-12-24T05:36:18.480Z,85.31
2018-12-24T05:38:46.496Z,85.56
2018-12-24T05:41:14.352Z,85.27
2018-12-24T05:43:49.246Z,85.27
2018-12-24T05:46:12.122Z,85.57
2018-12-24T05:48:39.938Z,85.62
2018-12-24T05:51:07.754Z,85.83
2018-12-24T05:53:35.522Z,85.83
2018-12-24T05:56:03.612Z,85.61
2018-12-24T05:58:31.418Z,85.29
2018-12-24T06:00:59.242Z,85.79
2018-12-24T06:03:27.290Z,85.79
2018-12-24T06:05:58.876Z,85.62
2018-12-24T06:08:27.033Z,85.34
2018-12-24T06:10:55.826Z,85.34
2018-12-24T06:13:23.984Z,85.98
2018-12-24T06:15:51.821Z,85.98
2018-12-24T06:18:20.936Z,85.60
2018-12-24T06:20:48.661Z,85.58
2018-12-24T06:23:16.453Z,85.21
2018-12-24T06:25:44.179Z,85.49
2018-12-24T06:28:12.256Z,85.31
2018-12-24T06:30:40.006Z,85.31
2018-12-24T06:33:07.738Z,86.11
2018-12-24T06:35:35.542Z,86.11
2018-12-24T06:38:03.578Z,85.73
2018-12-24T06:40:31.390Z,85.76
2018-12-24T06:42:59.156Z,85.46
2018-12-24T06:45:27.349Z,85.46
2018-12-24T06:47:57.203Z,85.85
2018-12-24T06:50:24.950Z,85.88
2018-12-24T06:52:52.731Z,85.77
2018-12-24T06:55:20.837Z,85.77
2018-12-24T06:57:48.596Z,85.87
2018-12-24T07:00:16.710Z,85.90
2018-12-24T07:02:45.258Z,85.93
2018-12-24T07:05:13.493Z,85.89
2018-12-24T07:07:44.154Z,85.84
2018-12-24T07:10:12.230Z,86.05
2018-12-24T07:12:42.748Z,86.05
2018-12-24T07:15:16.432Z,85.77
2018-12-24T07:17:44.514Z,85.75
2018-12-24T07:20:13.335Z,85.71
2018-12-24T07:22:41.152Z,85.73
2018-12-24T07:25:09.011Z,85.75
2018-12-24T07:27:37.159Z,85.76
2018-12-24T07:30:04.928Z,85.74
2018-12-24T07:32:32.657Z,85.69
2018-12-24T07:35:00.476Z,85.69
2018-12-24T07:37:28.508Z,85.71
2018-12-24T07:39:56.365Z,85.71
2018-12-24T07:42:25.295Z,85.89
2018-12-24T07:44:55.853Z,85.89
2018-12-24T07:47:23.694Z,85.67
2018-12-24T07:49:51.550Z,85.64
2018-12-24T07:52:19.674Z,85.61
2018-12-24T07:54:47.613Z,85.57
2018-12-24T07:57:15.777Z,85.54
2018-12-24T07:59:43.932Z,85.56
2018-12-24T08:02:12.213Z,85.52
2018-12-24T08:04:40.016Z,85.26
2018-12-24T08:07:08.073Z,85.62
2018-12-24T08:09:35.850Z,85.62
2018-12-24T08:12:12.817Z,85.19
2018-12-24T08:14:43.565Z,85.27
2018-12-24T08:17:14.410Z,85.13
2018-12-24T08:19:42.157Z,85.51
2018-12-24T08:22:11.371Z,85.51
2018-12-24T08:24:39.139Z,85.42
2018-12-24T08:27:06.945Z,85.51
2018-12-24T08:29:36.205Z,85.54
2018-12-24T08:32:05.604Z,85.51
2018-12-24T08:34:33.375Z,85.66
2018-12-24T08:37:01.390Z,85.27
2018-12-24T08:39:30.495Z,85.27
2018-12-24T08:41:58.338Z,86.05
2018-12-24T08:44:26.354Z,86.03
2018-12-24T08:46:54.212Z,86.03
2018-12-24T08:49:22.284Z,85.57
2018-12-24T08:51:51.690Z,85.49
2018-12-24T08:54:19.426Z,85.43
2018-12-24T08:56:47.283Z,85.26
2018-12-24T08:59:18.674Z,85.33
2018-12-24T09:01:48.500Z,85.33
2018-12-24T09:04:16.353Z,84.46
2018-12-24T09:06:44.375Z,84.46
2018-12-24T09:09:12.178Z,84.57
2018-12-24T09:11:47.213Z,84.50
2018-12-24T09:14:15.335Z,84.78
2018-12-24T09:16:43.112Z,84.08
2018-12-24T09:19:12.874Z,84.08
2018-12-24T09:21:44.743Z,84.26
2018-12-24T09:24:15.176Z,84.22
2018-12-24T09:26:44.912Z,84.37
2018-12-24T09:29:12.653Z,84.22
2018-12-24T09:31:40.426Z,84.22
2018-12-24T09:34:08.685Z,84.05
2018-12-24T09:36:36.734Z,84.00
2018-12-24T09:39:05.486Z,84.00
2018-12-24T09:41:33.319Z,83.96
2018-12-24T09:44:01.443Z,84.26
2018-12-24T09:46:29.345Z,84.26
2018-12-24T09:48:59.377Z,84.17
2018-12-24T09:51:27.456Z,84.17
2018-12-24T09:53:55.311Z,83.73
2018-12-24T09:56:23.129Z,83.73
2018-12-24T09:58:56.554Z,83.68
2018-12-24T10:01:25.430Z,82.51
2018-12-24T10:04:02.863Z,82.06
2018-12-24T10:06:25.970Z,81.80
2018-12-24T10:08:54.069Z,81.07
2018-12-24T10:11:21.791Z,79.47
2018-12-24T10:13:49.663Z,79.01
2018-12-24T10:16:17.746Z,78.89
2018-12-24T10:18:47.839Z,79.33
2018-12-24T10:21:18.106Z,78.43
2018-12-24T10:23:49.187Z,78.93
2018-12-24T10:26:18.432Z,78.93
2018-12-24T10:28:47.842Z,79.44
2018-12-24T10:31:15.963Z,79.57
2018-12-24T10:33:43.735Z,78.21
2018-12-24T10:36:11.563Z,78.21
2018-12-24T10:38:39.616Z,78.36
2018-12-24T10:41:07.462Z,78.36
2018-12-24T10:43:35.278Z,79.67
2018-12-24T10:46:03.467Z,79.67
2018-12-24T10:48:31.657Z,78.89
2018-12-24T10:50:59.467Z,77.11
2018-12-24T10:53:27.510Z,74.96
2018-12-24T10:55:55.396Z,74.96
2018-12-24T10:58:23.129Z,74.78
2018-12-24T11:00:51.238Z,75.39
2018-12-24T11:03:19.225Z,75.72
2018-12-24T11:05:47.753Z,77.57
2018-12-24T11:08:15.911Z,77.57
2018-12-24T11:10:43.802Z,78.79
2018-12-24T11:13:13.422Z,78.79
2018-12-24T11:15:45.226Z,79.59
2018-12-24T11:18:13.124Z,79.83
2018-12-24T11:20:47.171Z,78.82
2018-12-24T11:23:13.787Z,78.82
2018-12-24T11:25:41.520Z,78.62
2018-12-24T11:28:12.268Z,78.62
2018-12-24T11:30:41.746Z,78.90
2018-12-24T11:33:11.653Z,79.28
2018-12-24T11:35:39.479Z,79.71
2018-12-24T11:38:07.591Z,80.17
2018-12-24T11:40:37.189Z,80.44
2018-12-24T11:43:06.333Z,79.40
2018-12-24T11:45:36.122Z,74.38
2018-12-24T11:48:06.253Z,74.18
2018-12-24T11:50:34.205Z,74.49
2018-12-24T11:53:05.292Z,74.49
2018-12-24T11:55:35.660Z,75.79
2018-12-24T11:58:13.288Z,76.54
2018-12-24T12:00:37.120Z,76.90
2018-12-24T12:03:07.318Z,77.18
2018-12-24T12:05:35.483Z,77.19
2018-12-24T12:08:03.330Z,76.93
2018-12-24T12:10:31.385Z,77.19
2018-12-24T12:12:59.472Z,78.00
2018-12-24T12:15:27.199Z,78.00
2018-12-24T12:17:55.006Z,78.22
2018-12-24T12:20:26.016Z,78.60
2018-12-24T12:22:55.628Z,78.94
2018-12-24T12:25:23.499Z,79.34
2018-12-24T12:27:54.529Z,79.17
2018-12-24T12:30:22.395Z,79.17
2018-12-24T12:32:50.247Z,78.61
2018-12-24T12:35:18.335Z,77.79
2018-12-24T12:37:46.297Z,77.55
2018-12-24T12:40:16.342Z,77.55
2018-12-24T12:42:44.409Z,77.72
2018-12-24T12:45:12.194Z,77.90
2018-12-24T12:47:40.034Z,78.01
2018-12-24T12:50:08.163Z,78.82
2018-12-24T12:52:37.071Z,78.24
2018-12-24T12:55:09.961Z,78.24
2018-12-24T12:57:38.504Z,78.24
2018-12-24T13:00:06.236Z,76.68
2018-12-24T13:02:34.097Z,76.68
2018-12-24T13:05:04.321Z,75.96
2018-12-24T13:07:37.941Z,75.66
2018-12-24T13:10:05.788Z,75.60
2018-12-24T13:12:33.903Z,75.23
2018-12-24T13:15:01.714Z,75.23
2018-12-24T13:17:29.632Z,75.54
2018-12-24T13:19:57.664Z,75.79
2018-12-24T13:22:25.819Z,75.97
2018-12-24T13:24:53.581Z,76.45
2018-12-24T13:27:22.779Z,77.35
2018-12-24T13:29:53.123Z,77.35
2018-12-24T13:32:23.841Z,77.01
2018-12-24T13:34:54.638Z,77.01
2018-12-24T13:37:22.368Z,76.72
2018-12-24T13:39:50.201Z,76.72
2018-12-24T13:42:18.259Z,76.34
2018-12-24T13:44:46.033Z,76.57
2018-12-24T13:47:13.827Z,77.46
2018-12-24T13:49:44.500Z,77.46
2018-12-24T13:52:12.781Z,77.80
2018-12-24T13:54:40.521Z,77.59
2018-12-24T13:57:10.255Z,77.59
2018-12-24T13:59:40.883Z,78.26
2018-12-24T14:02:09.656Z,78.89
2018-12-24T14:04:37.397Z,78.89
2018-12-24T14:07:07.135Z,78.85
2018-12-24T14:09:35.204Z,79.20
2018-12-24T14:12:03.055Z,79.69
2018-12-24T14:14:30.806Z,79.69
2018-12-24T14:17:01.035Z,79.88
2018-12-24T14:19:28.791Z,79.88
2018-12-24T14:21:56.579Z,79.44
2018-12-24T14:24:24.717Z,79.44
2018-12-24T14:26:52.836Z,79.09
2018-12-24T14:29:20.927Z,78.70
2018-12-24T14:31:49.017Z,79.20
2018-12-24T14:34:16.778Z,78.83
2018-12-24T14:36:44.552Z,78.72
2018-12-24T14:39:12.645Z,79.24
2018-12-24T14:41:43.095Z,79.24
2018-12-24T14:44:11.019Z,79.32
2018-12-24T14:46:42.184Z,79.43
2018-12-24T14:49:12.633Z,79.86
2018-12-24T14:51:40.471Z,79.86
2018-12-24T14:54:11.010Z,80.01
2018-12-24T14:56:38.759Z,79.81
2018-12-24T14:59:06.866Z,79.81
2018-12-24T15:01:34.664Z,80.15
2018-12-24T15:04:04.372Z,80.29
2018-12-24T15:06:32.427Z,80.48
2018-12-24T15:09:00.617Z,80.69
2018-12-24T15:11:28.340Z,80.91
2018-12-24T15:13:59.839Z,81.63
2018-12-24T15:16:34.023Z,81.63
2018-12-24T15:18:57.027Z,81.56
2018-12-24T15:21:25.055Z,82.33
2018-12-24T15:23:52.835Z,81.82
2018-12-24T15:26:20.624Z,81.82
2018-12-24T15:28:48.640Z,82.20
2018-12-24T15:31:16.509Z,81.76
2018-12-24T15:33:44.273Z,81.83
2018-12-24T15:36:12.029Z,81.83
2018-12-24T15:38:42.107Z,81.79
2018-12-24T15:41:12.834Z,81.79
2018-12-24T15:43:40.659Z,82.23
2018-12-24T15:46:08.400Z,82.61
2018-12-24T15:48:36.520Z,82.61
2018-12-24T15:51:04.242Z,82.40
2018-12-24T15:53:34.311Z,82.49
2018-12-24T15:56:11.431Z,82.49
2018-12-24T15:58:39.267Z,83.60
2018-12-24T16:01:07.053Z,83.60
2018-12-24T16:03:36.996Z,83.28
2018-12-24T16:06:07.289Z,83.45
2018-12-24T16:08:36.401Z,83.78
2018-12-24T16:11:08.002Z,83.78
2018-12-24T16:13:38.778Z,83.65
2018-12-24T16:16:06.808Z,83.70
2018-12-24T16:18:35.728Z,84.07
2018-12-24T16:21:03.494Z,83.41
2018-12-24T16:23:33.200Z,83.13
2018-12-24T16:26:03.468Z,83.13
2018-12-24T16:28:31.675Z,82.96
2018-12-24T16:30:59.748Z,83.52
2018-12-24T16:33:27.547Z,82.62
2018-12-24T16:36:01.440Z,82.75
2018-12-24T16:38:29.328Z,82.75
2018-12-24T16:40:57.158Z,82.62
2018-12-24T16:43:28.292Z,82.48
2018-12-24T16:45:59.006Z,82.60
2018-12-24T16:48:27.712Z,82.60
2018-12-24T16:50:55.793Z,82.19
2018-12-24T16:53:27.675Z,81.99
2018-12-24T16:55:55.513Z,82.14
2018-12-24T16:58:28.099Z,82.15
2018-12-24T17:00:59.904Z,81.42
2018-12-24T17:03:27.652Z,81.42
2018-12-24T17:05:59.922Z,81.85
2018-12-24T17:08:27.730Z,82.27
2018-12-24T17:10:56.774Z,82.27
2018-12-24T17:13:24.560Z,81.41
2018-12-24T17:15:52.275Z,81.89
2018-12-24T17:18:20.395Z,81.89
2018-12-24T17:20:52.522Z,81.45
2018-12-24T17:23:20.458Z,81.44
2018-12-24T17:25:48.514Z,81.23
2018-12-24T17:28:16.263Z,81.37
2018-12-24T17:30:44.102Z,81.37
2018-12-24T17:33:12.712Z,81.63
2018-12-24T17:35:42.166Z,81.66
2018-12-24T17:38:09.932Z,81.12
2018-12-24T17:40:38.057Z,81.12
2018-12-24T17:43:05.731Z,81.65
2018-12-24T17:45:38.904Z,81.73
2018-12-24T17:48:14.986Z,81.73
2018-12-24T17:50:42.485Z,81.54
2018-12-24T17:53:10.306Z,81.54
2018-12-24T17:55:38.081Z,81.94
2018-12-24T17:58:05.912Z,81.91
2018-12-24T18:00:33.977Z,81.97
2018-12-24T18:03:02.120Z,81.97
2018-12-24T18:05:32.760Z,82.26
2018-12-24T18:08:00.821Z,81.68
2018-12-24T18:10:46.009Z,81.68
2018-12-24T18:13:14.073Z,81.65
2018-12-24T18:15:41.950Z,81.65
2018-12-24T18:18:09.753Z,81.75
2018-12-24T18:20:37.789Z,81.75
2018-12-24T18:23:05.586Z,81.78
2018-12-24T18:25:37.094Z,81.72
2018-12-24T18:28:05.193Z,81.54
2018-12-24T18:30:34.352Z,81.54
2018-12-24T18:33:02.258Z,81.87
2018-12-24T18:35:30.694Z,81.97
2018-12-24T18:37:58.450Z,82.06
2018-12-24T18:40:27.807Z,81.63
2018-12-24T18:42:55.773Z,81.63
2018-12-24T18:45:23.597Z,81.96
2018-12-24T18:47:53.162Z,81.91
2018-12-24T18:50:21.218Z,81.90
2018-12-24T18:52:49.017Z,81.93
2018-12-24T18:55:16.832Z,81.92
2018-12-24T18:57:47.086Z,81.87
2018-12-24T19:00:15.209Z,81.56
2018-12-24T19:02:43.116Z,81.50
2018-12-24T19:05:10.857Z,81.18
2018-12-24T19:07:38.621Z,81.18
2018-12-24T19:10:06.433Z,81.65
2018-12-24T19:12:36.860Z,81.64
2018-12-24T19:15:04.658Z,81.64
2018-12-24T19:17:32.870Z,81.54
2018-12-24T19:20:02.824Z,81.44
2018-12-24T19:22:30.711Z,81.62
2018-12-24T19:24:58.456Z,80.86
2018-12-24T19:27:26.530Z,80.86
2018-12-24T19:29:57.328Z,81.12
2018-12-24T19:32:27.277Z,81.11
2018-12-24T19:35:01.394Z,81.10
2018-12-24T19:37:29.302Z,81.20
2018-12-24T19:39:57.056Z,81.20
2018-12-24T19:42:24.890Z,80.97
2018-12-24T19:44:54.156Z,81.57
2018-12-24T19:47:25.245Z,81.57
2018-12-24T19:49:52.943Z,80.73
2018-12-24T19:52:21.056Z,80.73
2018-12-24T19:54:49.078Z,81.01
2018-12-24T19:57:19.653Z,80.48
2018-12-24T19:59:47.312Z,80.48
2018-12-24T20:02:18.280Z,80.84
2018-12-24T20:04:47.471Z,80.82
2018-12-24T20:07:20.875Z,80.82
2018-12-24T20:09:49.653Z,80.85
2018-12-24T20:12:17.720Z,81.03
2018-12-24T20:14:46.527Z,81.03
2018-12-24T20:17:17.925Z,80.55
2018-12-24T20:19:45.663Z,80.52
2018-12-24T20:22:13.436Z,80.50
2018-12-24T20:24:41.287Z,80.49
2018-12-24T20:27:13.978Z,80.89
2018-12-24T20:29:42.053Z,80.53
2018-12-24T20:32:09.879Z,80.53
2018-12-24T20:34:40.396Z,80.01
2018-12-24T20:37:09.539Z,80.21
2018-12-24T20:39:58.967Z,80.21
2018-12-24T20:42:26.764Z,80.62
2018-12-24T20:44:56.180Z,80.62
2018-12-24T20:47:24.271Z,80.18
2018-12-24T20:49:52.029Z,80.34
2018-12-24T20:52:21.523Z,80.41
2018-12-24T20:54:52.408Z,80.25
2018-12-24T20:57:20.223Z,80.82
2018-12-24T20:59:47.970Z,80.82
2018-12-24T21:02:16.103Z,80.36
2018-12-24T21:04:46.873Z,80.28
2018-12-24T21:07:14.715Z,80.28
2018-12-24T21:09:46.800Z,80.77
2018-12-24T21:12:16.816Z,80.77
2018-12-24T21:14:46.370Z,80.15
2018-12-24T21:17:14.217Z,80.15
2018-12-24T21:19:44.302Z,80.48
2018-12-24T21:22:12.393Z,80.68
2018-12-24T21:24:40.972Z,80.41
2018-12-24T21:27:08.730Z,80.41
2018-12-24T21:29:37.064Z,80.17
2018-12-24T21:32:04.905Z,80.17
2018-12-24T21:34:32.752Z,80.40
2018-12-24T21:37:01.904Z,80.38
2018-12-24T21:39:30.832Z,80.82
2018-12-24T21:41:58.716Z,80.59
2018-12-24T21:44:26.696Z,80.64
2018-12-24T21:46:54.603Z,80.64
2018-12-24T21:49:25.392Z,80.28
2018-12-24T21:51:53.959Z,80.00
2018-12-24T21:54:21.823Z,80.00
2018-12-24T21:56:50.678Z,80.18
2018-12-24T21:59:21.172Z,80.12
2018-12-24T22:01:50.654Z,79.90
2018-12-24T22:04:18.408Z,79.90
2018-12-24T22:06:46.522Z,80.45
2018-12-24T22:09:16.552Z,79.76
2018-12-24T22:11:47.419Z,79.86
2018-12-24T22:14:20.156Z,80.29
2018-12-24T22:16:51.381Z,79.86
2018-12-24T22:19:22.838Z,79.86
2018-12-24T22:21:53.786Z,80.20
2018-12-24T22:24:21.664Z,80.39
2018-12-24T22:26:50.057Z,80.39
2018-12-24T22:29:18.124Z,80.35
2018-12-24T22:31:50.825Z,80.35
2018-12-24T22:34:18.927Z,80.04
2018-12-24T22:36:47.340Z,80.04
2018-12-24T22:39:15.103Z,80.37
2018-12-24T22:41:42.820Z,80.37
2018-12-24T22:44:10.924Z,79.77
2018-12-24T22:46:38.686Z,79.77
2018-12-24T22:49:06.563Z,80.04
2018-12-24T22:51:34.805Z,80.02
2018-12-24T22:54:02.585Z,80.30
2018-12-24T22:56:30.430Z,80.21
2018-12-24T22:59:00.242Z,80.10
2018-12-24T23:01:30.698Z,80.10
2018-12-24T23:03:58.565Z,79.92
2018-12-24T23:06:28.816Z,79.87
2018-12-24T23:08:56.684Z,79.55
2018-12-24T23:11:27.399Z,80.27
2018-12-24T23:13:55.442Z,80.27
2018-12-24T23:16:23.261Z,79.42
2018-12-24T23:18:51.303Z,79.42
2018-12-24T23:21:19.488Z,79.74
2018-12-24T23:23:51.923Z,79.77
2018-12-24T23:26:23.759Z,79.49
2018-12-24T23:28:51.717Z,79.49
2018-12-24T23:31:21.810Z,79.73
2018-12-24T23:33:49.620Z,79.73
2018-12-24T23:36:17.666Z,79.70
2018-12-24T23:38:45.483Z,79.30
2018-12-24T23:41:15.998Z,79.30
2018-12-24T23:43:44.128Z,79.71
2018-12-24T23:46:15.986Z,79.71
2018-12-24T23:48:41.366Z,79.71
2018-12-24T23:51:09.453Z,79.71
2018-12-24T23:53:37.252Z,79.56
2018-12-24T23:56:06.410Z,78.95
2018-12-24T23:58:35.181Z,78.95
